»·PEaware :: SWA1534 KSAN-KLAS

SWA1534 :: KSAN-KLAS

FLIGHT INFORMATION

Flight Status: Arrived
Operator:
Southwest Airlines
More flights by this operator :: More flights under this callsign
Pilot: Cody B. (17747)
Aircraft: BOEING 737-800
(B738)
More flights by this aircraft type
Origin: KSAN San Diego Intl-Lindbergh
United States
Destination: KLAS McCarran Intl
United States
More flights between these airports :: More routes between these airports
Route: PADRZ2 CHKNN SEBBY YELAH MISEN KEPEC6
File this flight plan on PilotEdge
Remarks:
Altitude:
(Current/Filed)
29,000ft
Speed:
(Current/Filed)
445kts
Departed: 08-Aug-18 09:32 AM
Arrived: 08-Aug-18 10:28 AM
Distance/Time
Traveled:
225nm/0:56
Distance/Time
To Go:
Arrived

Flight Plot

Page will automatically refresh every two minutes.

Flight plan parsing failed; only flown route is shown


Map Options




Map Legend


Flown Route
Filed Route
Departure Airport
Arrival Airport
Navaid (VOR, NDB)
Fix

Horizontal Profiles

Position Reports

Time Latitude Longitude Heading Altitude Ground
Speed
08-Aug-18 08:31 32.732770 -117.197025 132 25ft 0kts
08-Aug-18 08:32 32.732770 -117.197025 132 25ft 0kts
08-Aug-18 08:33 32.732770 -117.197025 132 25ft 0kts
08-Aug-18 08:34 32.732770 -117.197025 132 25ft 0kts
08-Aug-18 08:35 32.732770 -117.197025 132 25ft 0kts
08-Aug-18 08:36 32.732770 -117.197025 132 25ft 0kts
08-Aug-18 08:37 32.732770 -117.197025 132 25ft 0kts
08-Aug-18 08:38 32.732770 -117.197025 132 25ft 0kts
08-Aug-18 08:39 32.732770 -117.197025 132 25ft 0kts
08-Aug-18 08:40 32.732770 -117.197025 132 25ft 0kts
08-Aug-18 08:41 32.732770 -117.197025 132 25ft 0kts
08-Aug-18 08:42 32.732770 -117.197025 132 25ft 0kts
08-Aug-18 08:43 32.732770 -117.197025 132 25ft 0kts
08-Aug-18 08:44 32.732770 -117.197025 132 25ft 0kts
08-Aug-18 08:45 32.732770 -117.197025 132 25ft 0kts
08-Aug-18 08:46 32.732770 -117.197025 132 25ft 0kts
08-Aug-18 08:47 32.732770 -117.197025 132 25ft 0kts
08-Aug-18 08:48 32.732770 -117.197025 132 25ft 0kts
08-Aug-18 08:49 32.732770 -117.197025 132 25ft 0kts
08-Aug-18 08:50 32.732770 -117.197025 132 25ft 0kts
08-Aug-18 08:51 32.732770 -117.197025 132 25ft 0kts
08-Aug-18 08:52 32.732770 -117.197025 132 25ft 0kts
08-Aug-18 08:53 32.732770 -117.197025 132 25ft 0kts
08-Aug-18 08:54 32.732770 -117.197025 132 25ft 0kts
08-Aug-18 08:55 32.732770 -117.197025 132 25ft 0kts
08-Aug-18 08:56 32.732770 -117.197025 132 25ft 0kts
08-Aug-18 08:57 32.732770 -117.197025 132 25ft 0kts
08-Aug-18 08:58 32.732770 -117.197025 132 25ft 0kts
08-Aug-18 08:59 32.732770 -117.197025 132 25ft 0kts
08-Aug-18 09:00 32.732770 -117.197025 132 25ft 0kts
08-Aug-18 09:01 32.732770 -117.197025 132 25ft 0kts
08-Aug-18 09:02 32.732770 -117.197025 132 25ft 0kts
08-Aug-18 09:03 32.732770 -117.197025 132 25ft 0kts
08-Aug-18 09:04 32.732770 -117.197025 132 25ft 0kts
08-Aug-18 09:05 32.732770 -117.197025 132 25ft 0kts
08-Aug-18 09:06 32.732770 -117.197025 132 25ft 0kts
08-Aug-18 09:07 32.732770 -117.197025 132 25ft 0kts
08-Aug-18 09:08 32.732770 -117.197025 132 25ft 0kts
08-Aug-18 09:09 32.732770 -117.197025 132 25ft 0kts
08-Aug-18 09:10 32.732770 -117.197025 132 25ft 0kts
08-Aug-18 09:11 32.732770 -117.197025 132 25ft 0kts
08-Aug-18 09:12 32.732770 -117.197025 132 25ft 0kts
08-Aug-18 09:13 32.732770 -117.197025 132 25ft 0kts
08-Aug-18 09:14 32.732770 -117.197025 132 25ft 0kts
08-Aug-18 09:15 32.732770 -117.197025 132 25ft 0kts
08-Aug-18 09:16 32.732771 -117.197025 132 25ft 0kts
08-Aug-18 09:17 32.732771 -117.197025 133 25ft 0kts
08-Aug-18 09:18 32.732820 -117.197074 173 25ft 1kts
08-Aug-18 09:19 32.733046 -117.197291 38 25ft 1kts
08-Aug-18 09:20 32.732961 -117.197333 15 25ft 0kts
08-Aug-18 09:21 32.732961 -117.197333 15 25ft 0kts
08-Aug-18 09:22 32.732961 -117.197333 15 25ft 0kts
08-Aug-18 09:23 32.733414 -117.197161 16 25ft 2kts
08-Aug-18 09:24 32.733572 -117.197114 13 25ft 0kts
08-Aug-18 09:25 32.733887 -117.196977 29 25ft 7kts
08-Aug-18 09:26 32.733550 -117.193869 106 25ft 13kts
08-Aug-18 09:27 32.732583 -117.189854 105 25ft 16kts
08-Aug-18 09:28 32.730983 -117.183267 106 25ft 16kts
08-Aug-18 09:29 32.729749 -117.178184 106 25ft 15kts
08-Aug-18 09:30 32.729520 -117.176738 74 25ft 0kts
08-Aug-18 09:31 32.729520 -117.176738 74 25ft 0kts
08-Aug-18 09:32 32.729650 -117.176218 72 25ft 6kts
08-Aug-18 09:33 32.730955 -117.179005 285 25ft 49kts
08-Aug-18 09:34 32.743413 -117.231893 292 1946ft 183kts
08-Aug-18 09:35 32.773360 -117.281150 310 3678ft 253kts
08-Aug-18 09:36 32.819115 -117.347682 308 6827ft 280kts
08-Aug-18 09:37 32.867560 -117.422925 307 9880ft 299kts
08-Aug-18 09:38 32.921554 -117.506976 307 12305ft 334kts
08-Aug-18 09:39 32.978979 -117.596575 307 15002ft 352kts
08-Aug-18 09:40 33.037584 -117.688250 307 15010ft 348kts
08-Aug-18 09:41 33.104411 -117.771930 319 16881ft 357kts
08-Aug-18 09:42 33.178856 -117.847494 320 19452ft 370kts
08-Aug-18 09:43 33.258949 -117.926522 322 21902ft 382kts
08-Aug-18 09:44 33.342179 -118.007554 322 24114ft 393kts
08-Aug-18 09:45 33.427406 -118.090845 321 26059ft 405kts
08-Aug-18 09:46 33.513950 -118.175713 321 27827ft 416kts
08-Aug-18 09:47 33.606895 -118.255466 335 29027ft 427kts
08-Aug-18 09:48 33.718915 -118.303900 3 29045ft 450kts
08-Aug-18 09:49 33.822829 -118.232212 54 29036ft 461kts
08-Aug-18 09:50 33.894530 -118.109199 55 29020ft 461kts
08-Aug-18 09:51 33.968373 -117.983598 54 29024ft 462kts
08-Aug-18 09:52 34.042219 -117.858598 54 29027ft 462kts
08-Aug-18 09:53 34.117806 -117.736078 50 29074ft 462kts
08-Aug-18 09:54 34.198868 -117.616931 50 29063ft 463kts
08-Aug-18 09:55 34.279922 -117.496842 51 29062ft 465kts
08-Aug-18 09:56 34.361749 -117.375153 50 29071ft 469kts
08-Aug-18 09:57 34.442701 -117.254915 50 29118ft 468kts
08-Aug-18 09:58 34.525099 -117.132629 50 29119ft 470kts
08-Aug-18 09:59 34.607596 -117.010475 50 29074ft 471kts
08-Aug-18 10:00 34.690516 -116.887720 50 29067ft 470kts
08-Aug-18 10:01 34.773300 -116.765299 49 29063ft 468kts
08-Aug-18 10:02 34.856753 -116.643455 44 29061ft 467kts
08-Aug-18 10:03 34.956459 -116.544250 36 28125ft 464kts
08-Aug-18 10:04 35.052699 -116.451067 36 25418ft 428kts
08-Aug-18 10:05 35.136730 -116.360859 43 23605ft 401kts
08-Aug-18 10:06 35.211196 -116.267647 44 22016ft 384kts
08-Aug-18 10:07 35.284336 -116.175795 45 20613ft 374kts
08-Aug-18 10:08 35.356216 -116.085254 45 19231ft 368kts
08-Aug-18 10:09 35.426715 -115.996230 45 17853ft 361kts
08-Aug-18 10:10 35.495811 -115.908751 46 16515ft 356kts
08-Aug-18 10:11 35.564245 -115.821872 46 15192ft 353kts
08-Aug-18 10:12 35.630929 -115.736994 46 13907ft 327kts
08-Aug-18 10:13 35.691667 -115.659506 46 13051ft 308kts
08-Aug-18 10:14 35.753296 -115.586202 28 13051ft 310kts
08-Aug-18 10:15 35.838540 -115.569831 1 13046ft 313kts
08-Aug-18 10:16 35.925300 -115.565279 1 13046ft 313kts
08-Aug-18 10:17 35.990901 -115.506388 67 13011ft 311kts
08-Aug-18 10:18 36.021368 -115.409729 69 11433ft 296kts
08-Aug-18 10:19 36.028904 -115.317366 97 10341ft 277kts
08-Aug-18 10:20 36.021163 -115.223173 96 9310ft 277kts
08-Aug-18 10:21 36.015066 -115.133487 95 8441ft 249kts
08-Aug-18 10:22 36.011361 -115.050196 95 7190ft 238kts
08-Aug-18 10:23 36.007863 -114.971698 95 5751ft 222kts
08-Aug-18 10:24 36.026208 -114.910310 8 4697ft 215kts
08-Aug-18 10:25 36.071929 -114.948476 289 4589ft 191kts
08-Aug-18 10:26 36.073964 -115.010757 264 4181ft 167kts
08-Aug-18 10:27 36.073252 -115.064049 270 3166ft 148kts
08-Aug-18 10:28 36.073623 -115.113337 268 2443ft 142kts
08-Aug-18 10:29 36.073725 -115.143056 280 2189ft 20kts
08-Aug-18 10:30 36.074976 -115.146327 319 2189ft 0kts
08-Aug-18 10:31 36.077688 -115.146923 293 2189ft 7kts
08-Aug-18 10:32 36.078952 -115.147421 5 2189ft 7kts
08-Aug-18 10:33 36.079690 -115.147499 47 2189ft 4kts
08-Aug-18 10:34 36.079922 -115.147119 55 2189ft 0kts
08-Aug-18 10:35 36.079919 -115.147124 55 2189ft 1kts

Navigation Log

Ident Type
Flight plan parsing failed, navigation log unavailable